Terminal Aerodrome Forecast
Issued by NWS

Home | Current Version | Previous Version | Text Only | Print | Product List | Glossary On
Versions: 1 2 3 4 5 6 7 8 9 10 11 12 13 14
465
FTUS43 KICT 251247 AAA
TAFHUT
TAF AMD
KHUT 251247Z 2513/2612 15009KT P6SM VCTS OVC060CB
      TEMPO 2514/2518 5SM TSRA OVC030CB
     FM251800 18009KT P6SM VCTS SCT035CB BKN070
      TEMPO 2518/2522 3SM +TSRA OVC025CB
     FM252300 07008KT 6SM SHRA VCTS OVC035CB
     FM260300 01009KT 6SM BR VCSH OVC010=

USA.gov is the U.S. government's official web portal to all federal, state and local government web resources and services.